sensor_id;sensor_type;location;lat;lon;timestamp;P1;durP1;ratioP1;P2;durP2;ratioP2
7446;SDS011;3765;47.962;7.952;2023-02-22T00:00:44;8.80;;;2.17;;
7446;SDS011;3765;47.962;7.952;2023-02-22T00:03:16;9.80;;;2.00;;
7446;SDS011;3765;47.962;7.952;2023-02-22T00:05:50;11.00;;;1.93;;
7446;SDS011;3765;47.962;7.952;2023-02-22T00:08:21;13.73;;;2.00;;
7446;SDS011;3765;47.962;7.952;2023-02-22T00:10:51;7.50;;;2.10;;
7446;SDS011;3765;47.962;7.952;2023-02-22T00:13:20;7.40;;;1.60;;
7446;SDS011;3765;47.962;7.952;2023-02-22T00:15:49;8.60;;;2.10;;
7446;SDS011;3765;47.962;7.952;2023-02-22T00:18:17;8.40;;;2.10;;
7446;SDS011;3765;47.962;7.952;2023-02-22T00:20:46;7.93;;;1.90;;
7446;SDS011;3765;47.962;7.952;2023-02-22T00:23:15;9.67;;;1.83;;
7446;SDS011;3765;47.962;7.952;2023-02-22T00:25:45;8.40;;;2.17;;
7446;SDS011;3765;47.962;7.952;2023-02-22T00:28:16;8.63;;;2.63;;
7446;SDS011;3765;47.962;7.952;2023-02-22T00:30:45;11.00;;;1.93;;
7446;SDS011;3765;47.962;7.952;2023-02-22T00:33:13;8.03;;;2.20;;
7446;SDS011;3765;47.962;7.952;2023-02-22T00:35:42;7.97;;;1.90;;
7446;SDS011;3765;47.962;7.952;2023-02-22T00:38:12;12.20;;;3.20;;
7446;SDS011;3765;47.962;7.952;2023-02-22T00:40:41;8.97;;;2.00;;
7446;SDS011;3765;47.962;7.952;2023-02-22T00:43:10;11.50;;;2.00;;
7446;SDS011;3765;47.962;7.952;2023-02-22T00:45:40;8.53;;;1.83;;
7446;SDS011;3765;47.962;7.952;2023-02-22T00:48:09;9.47;;;1.70;;
7446;SDS011;3765;47.962;7.952;2023-02-22T00:50:38;9.77;;;2.33;;
7446;SDS011;3765;47.962;7.952;2023-02-22T00:53:07;10.90;;;2.03;;
7446;SDS011;3765;47.962;7.952;2023-02-22T00:55:36;11.03;;;1.37;;
7446;SDS011;3765;47.962;7.952;2023-02-22T00:58:05;9.07;;;2.20;;
7446;SDS011;3765;47.962;7.952;2023-02-22T01:00:35;10.40;;;2.30;;
7446;SDS011;3765;47.962;7.952;2023-02-22T01:03:05;7.97;;;2.03;;
7446;SDS011;3765;47.962;7.952;2023-02-22T01:05:38;8.43;;;2.10;;
7446;SDS011;3765;47.962;7.952;2023-02-22T01:08:07;8.10;;;2.10;;
7446;SDS011;3765;47.962;7.952;2023-02-22T01:10:37;8.90;;;1.90;;
7446;SDS011;3765;47.962;7.952;2023-02-22T01:13:07;8.10;;;2.30;;
7446;SDS011;3765;47.962;7.952;2023-02-22T01:15:38;9.57;;;2.03;;
7446;SDS011;3765;47.962;7.952;2023-02-22T01:18:08;7.70;;;1.80;;
7446;SDS011;3765;47.962;7.952;2023-02-22T01:20:38;8.17;;;2.43;;
7446;SDS011;3765;47.962;7.952;2023-02-22T01:23:06;11.00;;;2.80;;
7446;SDS011;3765;47.962;7.952;2023-02-22T01:25:36;9.13;;;2.07;;
7446;SDS011;3765;47.962;7.952;2023-02-22T01:28:04;8.27;;;2.00;;
7446;SDS011;3765;47.962;7.952;2023-02-22T01:30:35;9.20;;;2.00;;
7446;SDS011;3765;47.962;7.952;2023-02-22T01:33:05;9.80;;;2.10;;
7446;SDS011;3765;47.962;7.952;2023-02-22T01:35:35;9.80;;;2.03;;
7446;SDS011;3765;47.962;7.952;2023-02-22T01:38:06;7.70;;;2.10;;
7446;SDS011;3765;47.962;7.952;2023-02-22T01:40:35;10.30;;;2.97;;
7446;SDS011;3765;47.962;7.952;2023-02-22T01:43:13;10.63;;;2.20;;
7446;SDS011;3765;47.962;7.952;2023-02-22T01:45:47;10.50;;;3.27;;
7446;SDS011;3765;47.962;7.952;2023-02-22T01:48:21;10.00;;;2.57;;
7446;SDS011;3765;47.962;7.952;2023-02-22T01:50:58;9.83;;;1.90;;
7446;SDS011;3765;47.962;7.952;2023-02-22T01:53:34;9.20;;;2.50;;
7446;SDS011;3765;47.962;7.952;2023-02-22T01:56:06;10.60;;;2.00;;
7446;SDS011;3765;47.962;7.952;2023-02-22T01:58:35;8.30;;;2.27;;
7446;SDS011;3765;47.962;7.952;2023-02-22T02:01:08;9.27;;;2.63;;
7446;SDS011;3765;47.962;7.952;2023-02-22T02:03:47;9.57;;;1.97;;
7446;SDS011;3765;47.962;7.952;2023-02-22T02:06:18;9.90;;;1.87;;
7446;SDS011;3765;47.962;7.952;2023-02-22T02:08:52;8.57;;;2.60;;
7446;SDS011;3765;47.962;7.952;2023-02-22T02:11:26;7.63;;;1.80;;
7446;SDS011;3765;47.962;7.952;2023-02-22T02:13:56;13.33;;;1.47;;
7446;SDS011;3765;47.962;7.952;2023-02-22T02:16:25;8.30;;;1.90;;
7446;SDS011;3765;47.962;7.952;2023-02-22T02:19:02;7.57;;;1.90;;
7446;SDS011;3765;47.962;7.952;2023-02-22T02:21:46;8.60;;;1.90;;
7446;SDS011;3765;47.962;7.952;2023-02-22T02:24:56;7.70;;;1.60;;
7446;SDS011;3765;47.962;7.952;2023-02-22T02:27:56;16.20;;;2.33;;
7446;SDS011;3765;47.962;7.952;2023-02-22T02:31:04;9.00;;;1.77;;
7446;SDS011;3765;47.962;7.952;2023-02-22T02:34:16;9.13;;;2.00;;
7446;SDS011;3765;47.962;7.952;2023-02-22T02:36:57;8.77;;;1.70;;
7446;SDS011;3765;47.962;7.952;2023-02-22T02:39:30;8.83;;;1.90;;
7446;SDS011;3765;47.962;7.952;2023-02-22T02:42:08;8.23;;;2.00;;
7446;SDS011;3765;47.962;7.952;2023-02-22T02:44:47;8.47;;;1.70;;
7446;SDS011;3765;47.962;7.952;2023-02-22T02:47:21;7.33;;;1.70;;
7446;SDS011;3765;47.962;7.952;2023-02-22T02:50:00;10.43;;;1.90;;
7446;SDS011;3765;47.962;7.952;2023-02-22T02:52:33;7.77;;;1.60;;
7446;SDS011;3765;47.962;7.952;2023-02-22T02:55:06;7.10;;;1.57;;
7446;SDS011;3765;47.962;7.952;2023-02-22T02:57:46;7.60;;;1.90;;
7446;SDS011;3765;47.962;7.952;2023-02-22T03:00:19;8.00;;;2.03;;
7446;SDS011;3765;47.962;7.952;2023-02-22T03:03:03;7.40;;;1.70;;
7446;SDS011;3765;47.962;7.952;2023-02-22T03:08:39;10.17;;;2.00;;
7446;SDS011;3765;47.962;7.952;2023-02-22T03:11:12;13.10;;;2.00;;
7446;SDS011;3765;47.962;7.952;2023-02-22T03:16:36;8.80;;;2.10;;
7446;SDS011;3765;47.962;7.952;2023-02-22T03:19:20;9.70;;;1.67;;
7446;SDS011;3765;47.962;7.952;2023-02-22T03:22:06;9.87;;;2.33;;
7446;SDS011;3765;47.962;7.952;2023-02-22T03:24:44;11.73;;;2.20;;
7446;SDS011;3765;47.962;7.952;2023-02-22T03:27:22;9.93;;;1.90;;
7446;SDS011;3765;47.962;7.952;2023-02-22T03:29:56;10.67;;;1.90;;
7446;SDS011;3765;47.962;7.952;2023-02-22T03:32:32;7.70;;;1.97;;
7446;SDS011;3765;47.962;7.952;2023-02-22T03:35:10;9.83;;;1.90;;
7446;SDS011;3765;47.962;7.952;2023-02-22T03:37:52;8.13;;;1.80;;
7446;SDS011;3765;47.962;7.952;2023-02-22T03:40:27;7.80;;;1.43;;
7446;SDS011;3765;47.962;7.952;2023-02-22T03:43:03;7.23;;;1.70;;
7446;SDS011;3765;47.962;7.952;2023-02-22T03:45:34;11.93;;;2.40;;
7446;SDS011;3765;47.962;7.952;2023-02-22T03:48:15;7.10;;;1.80;;
7446;SDS011;3765;47.962;7.952;2023-02-22T03:50:49;7.10;;;1.80;;
7446;SDS011;3765;47.962;7.952;2023-02-22T03:53:30;9.00;;;1.70;;
7446;SDS011;3765;47.962;7.952;2023-02-22T03:56:02;7.20;;;1.73;;
7446;SDS011;3765;47.962;7.952;2023-02-22T03:58:38;8.17;;;1.97;;
7446;SDS011;3765;47.962;7.952;2023-02-22T04:01:11;10.17;;;1.80;;
7446;SDS011;3765;47.962;7.952;2023-02-22T04:03:41;10.00;;;1.60;;
7446;SDS011;3765;47.962;7.952;2023-02-22T04:06:12;8.83;;;1.80;;
7446;SDS011;3765;47.962;7.952;2023-02-22T04:08:43;8.03;;;2.07;;
7446;SDS011;3765;47.962;7.952;2023-02-22T04:11:12;9.43;;;2.10;;
7446;SDS011;3765;47.962;7.952;2023-02-22T04:13:43;11.00;;;1.73;;
7446;SDS011;3765;47.962;7.952;2023-02-22T04:16:16;9.07;;;1.70;;
7446;SDS011;3765;47.962;7.952;2023-02-22T04:18:46;7.83;;;1.77;;
7446;SDS011;3765;47.962;7.952;2023-02-22T04:21:14;9.50;;;2.00;;
7446;SDS011;3765;47.962;7.952;2023-02-22T04:23:47;9.30;;;1.60;;
7446;SDS011;3765;47.962;7.952;2023-02-22T04:26:24;7.47;;;1.87;;
7446;SDS011;3765;47.962;7.952;2023-02-22T04:28:52;10.67;;;1.67;;
7446;SDS011;3765;47.962;7.952;2023-02-22T04:31:23;11.20;;;2.07;;
7446;SDS011;3765;47.962;7.952;2023-02-22T04:33:53;9.27;;;1.97;;
7446;SDS011;3765;47.962;7.952;2023-02-22T04:36:27;10.27;;;2.00;;
7446;SDS011;3765;47.962;7.952;2023-02-22T04:38:59;8.50;;;1.83;;
7446;SDS011;3765;47.962;7.952;2023-02-22T04:41:27;9.93;;;2.17;;
7446;SDS011;3765;47.962;7.952;2023-02-22T04:43:56;24.97;;;2.97;;
7446;SDS011;3765;47.962;7.952;2023-02-22T04:46:42;6.90;;;1.60;;
7446;SDS011;3765;47.962;7.952;2023-02-22T04:49:12;7.30;;;1.60;;
7446;SDS011;3765;47.962;7.952;2023-02-22T04:51:43;7.97;;;1.90;;
7446;SDS011;3765;47.962;7.952;2023-02-22T04:54:17;8.83;;;1.90;;
7446;SDS011;3765;47.962;7.952;2023-02-22T04:56:46;9.60;;;2.07;;
7446;SDS011;3765;47.962;7.952;2023-02-22T04:59:16;9.27;;;2.70;;
7446;SDS011;3765;47.962;7.952;2023-02-22T05:01:45;9.33;;;2.10;;
7446;SDS011;3765;47.962;7.952;2023-02-22T05:04:14;13.17;;;2.10;;
7446;SDS011;3765;47.962;7.952;2023-02-22T05:06:43;17.63;;;2.53;;
7446;SDS011;3765;47.962;7.952;2023-02-22T05:09:18;10.73;;;2.10;;
7446;SDS011;3765;47.962;7.952;2023-02-22T05:11:50;7.90;;;2.17;;
7446;SDS011;3765;47.962;7.952;2023-02-22T05:14:22;8.93;;;2.03;;
7446;SDS011;3765;47.962;7.952;2023-02-22T05:16:55;7.80;;;1.97;;
7446;SDS011;3765;47.962;7.952;2023-02-22T05:19:27;6.97;;;1.57;;
7446;SDS011;3765;47.962;7.952;2023-02-22T05:21:58;8.90;;;1.93;;
7446;SDS011;3765;47.962;7.952;2023-02-22T05:24:30;8.63;;;2.40;;
7446;SDS011;3765;47.962;7.952;2023-02-22T05:27:02;8.73;;;2.30;;
7446;SDS011;3765;47.962;7.952;2023-02-22T05:29:30;8.73;;;2.40;;
7446;SDS011;3765;47.962;7.952;2023-02-22T05:32:02;10.00;;;3.10;;
7446;SDS011;3765;47.962;7.952;2023-02-22T05:34:33;12.50;;;6.30;;
7446;SDS011;3765;47.962;7.952;2023-02-22T05:37:07;15.63;;;6.70;;
7446;SDS011;3765;47.962;7.952;2023-02-22T05:39:42;25.13;;;11.10;;
7446;SDS011;3765;47.962;7.952;2023-02-22T05:42:11;29.10;;;16.30;;
7446;SDS011;3765;47.962;7.952;2023-02-22T05:44:40;23.97;;;14.83;;
7446;SDS011;3765;47.962;7.952;2023-02-22T05:47:09;26.33;;;16.20;;
7446;SDS011;3765;47.962;7.952;2023-02-22T05:49:39;26.10;;;15.03;;
7446;SDS011;3765;47.962;7.952;2023-02-22T05:52:11;19.30;;;11.37;;
7446;SDS011;3765;47.962;7.952;2023-02-22T05:54:45;14.17;;;6.53;;
7446;SDS011;3765;47.962;7.952;2023-02-22T05:57:14;10.50;;;2.50;;
7446;SDS011;3765;47.962;7.952;2023-02-22T05:59:44;7.97;;;1.90;;
7446;SDS011;3765;47.962;7.952;2023-02-22T06:02:12;11.00;;;2.20;;
7446;SDS011;3765;47.962;7.952;2023-02-22T06:04:43;7.93;;;1.90;;
7446;SDS011;3765;47.962;7.952;2023-02-22T06:07:11;11.73;;;2.10;;
7446;SDS011;3765;47.962;7.952;2023-02-22T06:09:42;7.50;;;2.10;;
7446;SDS011;3765;47.962;7.952;2023-02-22T06:12:16;13.47;;;2.20;;
7446;SDS011;3765;47.962;7.952;2023-02-22T06:14:46;11.40;;;4.30;;
7446;SDS011;3765;47.962;7.952;2023-02-22T06:17:17;11.40;;;5.70;;
7446;SDS011;3765;47.962;7.952;2023-02-22T06:19:49;14.97;;;6.73;;
7446;SDS011;3765;47.962;7.952;2023-02-22T06:22:18;14.00;;;3.80;;
7446;SDS011;3765;47.962;7.952;2023-02-22T06:25:04;10.40;;;4.07;;
7446;SDS011;3765;47.962;7.952;2023-02-22T06:27:38;14.40;;;3.20;;
7446;SDS011;3765;47.962;7.952;2023-02-22T06:30:10;15.97;;;3.13;;
7446;SDS011;3765;47.962;7.952;2023-02-22T06:32:45;9.53;;;2.27;;
7446;SDS011;3765;47.962;7.952;2023-02-22T06:35:14;20.10;;;2.80;;
7446;SDS011;3765;47.962;7.952;2023-02-22T06:37:42;12.20;;;3.03;;
7446;SDS011;3765;47.962;7.952;2023-02-22T06:40:15;17.00;;;4.23;;
7446;SDS011;3765;47.962;7.952;2023-02-22T06:42:45;21.43;;;11.03;;
7446;SDS011;3765;47.962;7.952;2023-02-22T06:45:15;23.33;;;9.40;;
7446;SDS011;3765;47.962;7.952;2023-02-22T06:47:46;34.30;;;12.57;;
7446;SDS011;3765;47.962;7.952;2023-02-22T06:50:18;19.53;;;8.27;;
7446;SDS011;3765;47.962;7.952;2023-02-22T06:52:51;12.20;;;3.60;;
7446;SDS011;3765;47.962;7.952;2023-02-22T06:55:24;18.13;;;6.60;;
7446;SDS011;3765;47.962;7.952;2023-02-22T06:57:55;10.83;;;3.70;;
7446;SDS011;3765;47.962;7.952;2023-02-22T07:00:29;18.17;;;3.80;;
7446;SDS011;3765;47.962;7.952;2023-02-22T07:03:01;16.03;;;2.70;;
7446;SDS011;3765;47.962;7.952;2023-02-22T07:05:31;11.10;;;2.93;;
7446;SDS011;3765;47.962;7.952;2023-02-22T07:08:04;12.40;;;2.60;;
7446;SDS011;3765;47.962;7.952;2023-02-22T07:10:45;15.70;;;3.00;;
7446;SDS011;3765;47.962;7.952;2023-02-22T07:13:16;11.30;;;3.10;;
7446;SDS011;3765;47.962;7.952;2023-02-22T07:15:45;11.77;;;3.20;;
7446;SDS011;3765;47.962;7.952;2023-02-22T07:18:15;14.17;;;3.17;;
7446;SDS011;3765;47.962;7.952;2023-02-22T07:20:44;18.90;;;3.50;;
7446;SDS011;3765;47.962;7.952;2023-02-22T07:23:27;16.33;;;4.17;;
7446;SDS011;3765;47.962;7.952;2023-02-22T07:26:00;11.67;;;4.40;;
7446;SDS011;3765;47.962;7.952;2023-02-22T07:28:29;16.50;;;3.90;;
7446;SDS011;3765;47.962;7.952;2023-02-22T07:30:59;16.17;;;4.10;;
7446;SDS011;3765;47.962;7.952;2023-02-22T07:33:29;16.10;;;4.33;;
7446;SDS011;3765;47.962;7.952;2023-02-22T07:36:06;13.57;;;4.00;;
7446;SDS011;3765;47.962;7.952;2023-02-22T07:38:37;16.93;;;4.13;;
7446;SDS011;3765;47.962;7.952;2023-02-22T07:41:20;12.20;;;3.53;;
7446;SDS011;3765;47.962;7.952;2023-02-22T07:43:49;12.63;;;3.60;;
7446;SDS011;3765;47.962;7.952;2023-02-22T07:46:18;10.87;;;3.27;;
7446;SDS011;3765;47.962;7.952;2023-02-22T07:48:54;13.03;;;4.07;;
7446;SDS011;3765;47.962;7.952;2023-02-22T07:51:26;26.10;;;5.23;;
7446;SDS011;3765;47.962;7.952;2023-02-22T07:54:10;17.43;;;7.07;;
7446;SDS011;3765;47.962;7.952;2023-02-22T07:56:44;12.77;;;4.87;;
7446;SDS011;3765;47.962;7.952;2023-02-22T07:59:15;10.50;;;3.40;;
7446;SDS011;3765;47.962;7.952;2023-02-22T08:01:48;12.50;;;3.63;;
7446;SDS011;3765;47.962;7.952;2023-02-22T08:04:18;13.13;;;3.30;;
7446;SDS011;3765;47.962;7.952;2023-02-22T08:06:49;11.80;;;3.50;;
7446;SDS011;3765;47.962;7.952;2023-02-22T08:09:23;17.40;;;3.33;;
7446;SDS011;3765;47.962;7.952;2023-02-22T08:14:51;10.80;;;3.77;;
7446;SDS011;3765;47.962;7.952;2023-02-22T08:17:25;18.83;;;9.27;;
7446;SDS011;3765;47.962;7.952;2023-02-22T08:19:57;15.47;;;8.00;;
7446;SDS011;3765;47.962;7.952;2023-02-22T08:22:28;14.47;;;5.87;;
7446;SDS011;3765;47.962;7.952;2023-02-22T08:24:59;15.33;;;3.17;;
7446;SDS011;3765;47.962;7.952;2023-02-22T08:27:36;12.80;;;2.90;;
7446;SDS011;3765;47.962;7.952;2023-02-22T08:30:10;23.10;;;9.90;;
7446;SDS011;3765;47.962;7.952;2023-02-22T08:32:41;20.50;;;8.77;;
7446;SDS011;3765;47.962;7.952;2023-02-22T08:35:09;12.33;;;5.30;;
7446;SDS011;3765;47.962;7.952;2023-02-22T08:37:40;12.70;;;5.83;;
7446;SDS011;3765;47.962;7.952;2023-02-22T08:40:11;25.77;;;13.23;;
7446;SDS011;3765;47.962;7.952;2023-02-22T08:42:46;33.83;;;16.40;;
7446;SDS011;3765;47.962;7.952;2023-02-22T08:45:21;26.43;;;16.50;;
7446;SDS011;3765;47.962;7.952;2023-02-22T08:48:01;17.87;;;11.07;;
7446;SDS011;3765;47.962;7.952;2023-02-22T08:50:32;18.37;;;11.70;;
7446;SDS011;3765;47.962;7.952;2023-02-22T08:53:03;20.07;;;5.77;;
7446;SDS011;3765;47.962;7.952;2023-02-22T08:55:37;14.03;;;5.70;;
7446;SDS011;3765;47.962;7.952;2023-02-22T08:58:09;11.13;;;3.53;;
7446;SDS011;3765;47.962;7.952;2023-02-22T09:00:43;13.43;;;3.90;;
7446;SDS011;3765;47.962;7.952;2023-02-22T09:03:17;9.40;;;3.47;;
7446;SDS011;3765;47.962;7.952;2023-02-22T09:05:45;20.67;;;4.30;;
7446;SDS011;3765;47.962;7.952;2023-02-22T09:08:14;37.63;;;6.40;;
7446;SDS011;3765;47.962;7.952;2023-02-22T09:10:46;21.67;;;4.80;;
7446;SDS011;3765;47.962;7.952;2023-02-22T09:13:19;14.97;;;3.87;;
7446;SDS011;3765;47.962;7.952;2023-02-22T09:15:49;15.40;;;4.70;;
7446;SDS011;3765;47.962;7.952;2023-02-22T09:18:17;21.27;;;5.03;;
7446;SDS011;3765;47.962;7.952;2023-02-22T09:20:50;22.47;;;6.53;;
7446;SDS011;3765;47.962;7.952;2023-02-22T09:23:21;14.67;;;6.20;;
7446;SDS011;3765;47.962;7.952;2023-02-22T09:25:51;23.63;;;5.57;;
7446;SDS011;3765;47.962;7.952;2023-02-22T09:28:20;25.43;;;4.70;;
7446;SDS011;3765;47.962;7.952;2023-02-22T09:30:49;18.80;;;6.33;;
7446;SDS011;3765;47.962;7.952;2023-02-22T09:33:18;27.20;;;5.60;;
7446;SDS011;3765;47.962;7.952;2023-02-22T09:35:47;24.13;;;4.70;;
7446;SDS011;3765;47.962;7.952;2023-02-22T09:38:17;17.57;;;5.70;;
7446;SDS011;3765;47.962;7.952;2023-02-22T09:40:49;28.70;;;4.87;;
7446;SDS011;3765;47.962;7.952;2023-02-22T09:43:29;15.30;;;5.47;;
7446;SDS011;3765;47.962;7.952;2023-02-22T09:46:11;24.30;;;5.17;;
7446;SDS011;3765;47.962;7.952;2023-02-22T09:51:37;20.60;;;9.67;;
7446;SDS011;3765;47.962;7.952;2023-02-22T09:54:10;17.40;;;6.43;;
7446;SDS011;3765;47.962;7.952;2023-02-22T09:56:46;27.70;;;16.27;;
7446;SDS011;3765;47.962;7.952;2023-02-22T09:59:19;18.50;;;8.40;;
7446;SDS011;3765;47.962;7.952;2023-02-22T10:01:54;18.50;;;5.87;;
7446;SDS011;3765;47.962;7.952;2023-02-22T10:04:37;26.13;;;6.23;;
7446;SDS011;3765;47.962;7.952;2023-02-22T10:07:12;15.57;;;5.40;;
7446;SDS011;3765;47.962;7.952;2023-02-22T10:09:45;18.83;;;6.53;;
7446;SDS011;3765;47.962;7.952;2023-02-22T10:12:17;19.00;;;7.63;;
7446;SDS011;3765;47.962;7.952;2023-02-22T10:15:04;13.80;;;6.43;;
7446;SDS011;3765;47.962;7.952;2023-02-22T10:17:43;31.73;;;14.50;;
7446;SDS011;3765;47.962;7.952;2023-02-22T10:20:20;20.30;;;8.43;;
7446;SDS011;3765;47.962;7.952;2023-02-22T10:23:04;22.80;;;8.03;;
7446;SDS011;3765;47.962;7.952;2023-02-22T10:25:40;24.60;;;10.20;;
7446;SDS011;3765;47.962;7.952;2023-02-22T10:28:15;22.97;;;10.10;;
7446;SDS011;3765;47.962;7.952;2023-02-22T10:30:50;23.00;;;10.73;;
7446;SDS011;3765;47.962;7.952;2023-02-22T10:33:25;26.03;;;10.80;;
7446;SDS011;3765;47.962;7.952;2023-02-22T10:35:56;26.73;;;11.60;;
7446;SDS011;3765;47.962;7.952;2023-02-22T10:38:25;38.13;;;21.67;;
7446;SDS011;3765;47.962;7.952;2023-02-22T10:40:57;20.60;;;10.57;;
7446;SDS011;3765;47.962;7.952;2023-02-22T10:43:29;23.80;;;12.13;;
7446;SDS011;3765;47.962;7.952;2023-02-22T10:46:00;29.70;;;11.33;;
7446;SDS011;3765;47.962;7.952;2023-02-22T10:48:30;27.77;;;15.60;;
7446;SDS011;3765;47.962;7.952;2023-02-22T10:51:04;47.70;;;19.03;;
7446;SDS011;3765;47.962;7.952;2023-02-22T10:53:34;41.60;;;15.70;;
7446;SDS011;3765;47.962;7.952;2023-02-22T10:56:04;28.07;;;12.03;;
7446;SDS011;3765;47.962;7.952;2023-02-22T10:58:40;34.70;;;11.93;;
7446;SDS011;3765;47.962;7.952;2023-02-22T11:01:20;37.67;;;16.40;;
7446;SDS011;3765;47.962;7.952;2023-02-22T11:03:57;31.77;;;14.07;;
7446;SDS011;3765;47.962;7.952;2023-02-22T11:06:28;40.20;;;16.00;;
7446;SDS011;3765;47.962;7.952;2023-02-22T11:09:07;32.00;;;15.00;;
7446;SDS011;3765;47.962;7.952;2023-02-22T11:11:41;27.83;;;15.20;;
7446;SDS011;3765;47.962;7.952;2023-02-22T11:14:12;29.20;;;12.50;;
7446;SDS011;3765;47.962;7.952;2023-02-22T11:16:53;26.83;;;14.00;;
7446;SDS011;3765;47.962;7.952;2023-02-22T11:19:23;31.80;;;15.40;;
7446;SDS011;3765;47.962;7.952;2023-02-22T11:21:54;36.80;;;14.93;;
7446;SDS011;3765;47.962;7.952;2023-02-22T11:24:24;32.13;;;14.03;;
7446;SDS011;3765;47.962;7.952;2023-02-22T11:27:09;23.60;;;12.60;;
7446;SDS011;3765;47.962;7.952;2023-02-22T11:29:50;24.93;;;13.33;;
7446;SDS011;3765;47.962;7.952;2023-02-22T11:32:20;30.67;;;14.33;;
7446;SDS011;3765;47.962;7.952;2023-02-22T11:34:50;29.97;;;13.60;;
7446;SDS011;3765;47.962;7.952;2023-02-22T11:37:34;25.90;;;14.67;;
7446;SDS011;3765;47.962;7.952;2023-02-22T11:40:05;25.60;;;13.97;;
7446;SDS011;3765;47.962;7.952;2023-02-22T11:42:38;28.37;;;13.37;;
7446;SDS011;3765;47.962;7.952;2023-02-22T11:45:07;26.23;;;13.13;;
7446;SDS011;3765;47.962;7.952;2023-02-22T11:47:50;20.50;;;12.00;;
7446;SDS011;3765;47.962;7.952;2023-02-22T11:50:22;21.27;;;11.47;;
7446;SDS011;3765;47.962;7.952;2023-02-22T11:53:03;26.83;;;13.10;;
7446;SDS011;3765;47.962;7.952;2023-02-22T11:55:49;25.87;;;14.00;;
7446;SDS011;3765;47.962;7.952;2023-02-22T11:58:33;22.77;;;12.50;;
7446;SDS011;3765;47.962;7.952;2023-02-22T12:01:09;26.67;;;12.90;;
7446;SDS011;3765;47.962;7.952;2023-02-22T12:03:55;27.27;;;14.77;;
7446;SDS011;3765;47.962;7.952;2023-02-22T12:06:47;27.33;;;16.13;;
7446;SDS011;3765;47.962;7.952;2023-02-22T12:09:25;26.13;;;15.20;;
7446;SDS011;3765;47.962;7.952;2023-02-22T12:12:05;33.90;;;17.27;;
7446;SDS011;3765;47.962;7.952;2023-02-22T12:14:42;32.57;;;17.13;;
7446;SDS011;3765;47.962;7.952;2023-02-22T12:17:24;28.40;;;15.10;;
7446;SDS011;3765;47.962;7.952;2023-02-22T12:20:04;28.10;;;14.57;;
7446;SDS011;3765;47.962;7.952;2023-02-22T12:22:46;32.60;;;16.00;;
7446;SDS011;3765;47.962;7.952;2023-02-22T12:25:22;23.60;;;14.40;;
7446;SDS011;3765;47.962;7.952;2023-02-22T12:27:55;24.67;;;14.03;;
7446;SDS011;3765;47.962;7.952;2023-02-22T12:30:41;26.10;;;14.17;;
7446;SDS011;3765;47.962;7.952;2023-02-22T12:33:14;25.33;;;13.80;;
7446;SDS011;3765;47.962;7.952;2023-02-22T12:35:49;25.07;;;15.17;;
7446;SDS011;3765;47.962;7.952;2023-02-22T12:38:23;25.37;;;14.33;;
7446;SDS011;3765;47.962;7.952;2023-02-22T12:41:00;27.47;;;14.23;;
7446;SDS011;3765;47.962;7.952;2023-02-22T12:43:35;23.30;;;14.20;;
7446;SDS011;3765;47.962;7.952;2023-02-22T12:46:08;28.57;;;14.93;;
7446;SDS011;3765;47.962;7.952;2023-02-22T12:48:42;29.07;;;14.80;;
7446;SDS011;3765;47.962;7.952;2023-02-22T12:51:19;35.10;;;15.23;;
7446;SDS011;3765;47.962;7.952;2023-02-22T12:53:58;31.67;;;18.10;;
7446;SDS011;3765;47.962;7.952;2023-02-22T12:56:35;26.70;;;15.10;;
7446;SDS011;3765;47.962;7.952;2023-02-22T12:59:09;25.50;;;13.17;;
7446;SDS011;3765;47.962;7.952;2023-02-22T13:01:45;27.50;;;15.30;;
7446;SDS011;3765;47.962;7.952;2023-02-22T13:04:19;22.10;;;14.60;;
7446;SDS011;3765;47.962;7.952;2023-02-22T13:06:51;30.83;;;15.90;;
7446;SDS011;3765;47.962;7.952;2023-02-22T13:12:47;23.70;;;14.90;;
7446;SDS011;3765;47.962;7.952;2023-02-22T13:15:21;25.20;;;15.30;;
7446;SDS011;3765;47.962;7.952;2023-02-22T13:17:58;30.20;;;17.20;;
7446;SDS011;3765;47.962;7.952;2023-02-22T13:20:35;30.40;;;18.20;;
7446;SDS011;3765;47.962;7.952;2023-02-22T13:23:09;27.07;;;14.37;;
7446;SDS011;3765;47.962;7.952;2023-02-22T13:25:45;28.80;;;17.27;;
7446;SDS011;3765;47.962;7.952;2023-02-22T13:28:21;26.50;;;16.10;;
7446;SDS011;3765;47.962;7.952;2023-02-22T13:31:00;26.10;;;13.20;;
7446;SDS011;3765;47.962;7.952;2023-02-22T13:33:44;24.73;;;14.47;;
7446;SDS011;3765;47.962;7.952;2023-02-22T13:36:31;31.50;;;14.40;;
7446;SDS011;3765;47.962;7.952;2023-02-22T13:39:10;36.13;;;16.87;;
7446;SDS011;3765;47.962;7.952;2023-02-22T13:42:02;24.53;;;14.10;;
7446;SDS011;3765;47.962;7.952;2023-02-22T13:47:59;33.30;;;17.23;;
7446;SDS011;3765;47.962;7.952;2023-02-22T13:53:39;31.53;;;17.80;;
7446;SDS011;3765;47.962;7.952;2023-02-22T13:56:17;30.13;;;16.53;;
7446;SDS011;3765;47.962;7.952;2023-02-22T13:58:47;32.60;;;16.67;;
7446;SDS011;3765;47.962;7.952;2023-02-22T14:04:20;28.00;;;15.20;;
7446;SDS011;3765;47.962;7.952;2023-02-22T14:06:59;28.40;;;16.40;;
7446;SDS011;3765;47.962;7.952;2023-02-22T14:09:42;31.70;;;19.17;;
7446;SDS011;3765;47.962;7.952;2023-02-22T14:15:17;33.37;;;17.73;;
7446;SDS011;3765;47.962;7.952;2023-02-22T14:17:57;46.23;;;22.10;;
7446;SDS011;3765;47.962;7.952;2023-02-22T14:20:27;38.67;;;19.30;;
7446;SDS011;3765;47.962;7.952;2023-02-22T14:25:55;29.27;;;17.27;;
7446;SDS011;3765;47.962;7.952;2023-02-22T14:28:38;31.13;;;16.70;;
7446;SDS011;3765;47.962;7.952;2023-02-22T14:31:16;39.83;;;25.20;;
7446;SDS011;3765;47.962;7.952;2023-02-22T14:34:05;31.67;;;17.73;;
7446;SDS011;3765;47.962;7.952;2023-02-22T14:36:38;27.03;;;16.50;;
7446;SDS011;3765;47.962;7.952;2023-02-22T14:42:01;36.77;;;17.20;;
7446;SDS011;3765;47.962;7.952;2023-02-22T14:44:35;27.57;;;16.37;;
7446;SDS011;3765;47.962;7.952;2023-02-22T14:47:12;31.20;;;17.43;;
7446;SDS011;3765;47.962;7.952;2023-02-22T14:49:45;29.10;;;17.00;;
7446;SDS011;3765;47.962;7.952;2023-02-22T14:52:19;26.00;;;16.10;;
7446;SDS011;3765;47.962;7.952;2023-02-22T14:54:54;32.87;;;18.30;;
7446;SDS011;3765;47.962;7.952;2023-02-22T14:57:32;33.77;;;18.13;;
7446;SDS011;3765;47.962;7.952;2023-02-22T15:00:13;30.37;;;16.33;;
7446;SDS011;3765;47.962;7.952;2023-02-22T15:02:46;33.90;;;17.27;;
7446;SDS011;3765;47.962;7.952;2023-02-22T15:05:18;38.47;;;21.30;;
7446;SDS011;3765;47.962;7.952;2023-02-22T15:07:50;33.13;;;16.87;;
7446;SDS011;3765;47.962;7.952;2023-02-22T15:10:30;29.57;;;15.77;;
7446;SDS011;3765;47.962;7.952;2023-02-22T15:13:13;28.23;;;16.50;;
7446;SDS011;3765;47.962;7.952;2023-02-22T15:15:46;33.77;;;18.60;;
7446;SDS011;3765;47.962;7.952;2023-02-22T15:18:23;33.60;;;15.30;;
7446;SDS011;3765;47.962;7.952;2023-02-22T15:20:56;28.37;;;15.97;;
7446;SDS011;3765;47.962;7.952;2023-02-22T15:23:38;59.73;;;35.23;;
7446;SDS011;3765;47.962;7.952;2023-02-22T15:26:14;34.87;;;18.77;;
7446;SDS011;3765;47.962;7.952;2023-02-22T15:28:43;30.63;;;16.10;;
7446;SDS011;3765;47.962;7.952;2023-02-22T15:31:20;26.73;;;16.13;;
7446;SDS011;3765;47.962;7.952;2023-02-22T15:33:51;34.67;;;20.70;;
7446;SDS011;3765;47.962;7.952;2023-02-22T15:36:22;32.13;;;15.77;;
7446;SDS011;3765;47.962;7.952;2023-02-22T15:38:53;33.90;;;20.53;;
7446;SDS011;3765;47.962;7.952;2023-02-22T15:41:23;25.80;;;16.07;;
7446;SDS011;3765;47.962;7.952;2023-02-22T15:44:02;26.80;;;17.63;;
7446;SDS011;3765;47.962;7.952;2023-02-22T15:46:49;27.70;;;17.10;;
7446;SDS011;3765;47.962;7.952;2023-02-22T15:49:21;31.90;;;18.80;;
7446;SDS011;3765;47.962;7.952;2023-02-22T15:51:59;34.33;;;17.20;;
7446;SDS011;3765;47.962;7.952;2023-02-22T15:54:36;30.87;;;17.17;;
7446;SDS011;3765;47.962;7.952;2023-02-22T15:57:12;31.57;;;18.50;;
7446;SDS011;3765;47.962;7.952;2023-02-22T15:59:43;37.30;;;21.20;;
7446;SDS011;3765;47.962;7.952;2023-02-22T16:02:22;29.57;;;19.90;;
7446;SDS011;3765;47.962;7.952;2023-02-22T16:05:00;31.60;;;18.27;;
7446;SDS011;3765;47.962;7.952;2023-02-22T16:07:32;36.90;;;19.97;;
7446;SDS011;3765;47.962;7.952;2023-02-22T16:10:06;33.50;;;16.60;;
7446;SDS011;3765;47.962;7.952;2023-02-22T16:12:35;28.53;;;17.33;;
7446;SDS011;3765;47.962;7.952;2023-02-22T16:15:12;33.80;;;19.10;;